Time;durP1;ratioP1;P1;durP2;ratioP2;P2;SDS_P1;SDS_P2;PMS_P1;PMS_P2;Temp;Humidity;BMP_temperature;BMP_pressure;BME280_temperature;BME280_humidity;BME280_pressure;Samples;Min_cycle;Max_cycle;Signal;HPM_P1;HPM_P2
2023/08/02 00:02:11;;;;;;;12.00;4.20;;;;;;;;;;4989839;28;20038;-72
2023/08/02 00:04:37;;;;;;;12.52;4.97;;;;;;;;;;4989837;28;20026;-72
2023/08/02 00:07:04;;;;;;;17.98;5.47;;;;;;;;;;4990142;28;20031;-72
2023/08/02 00:09:30;;;;;;;13.52;4.57;;;;;;;;;;4989075;28;20089;-73
2023/08/02 00:11:59;;;;;;;15.05;4.40;;;;;;;;;;4990608;28;20030;-72
2023/08/02 00:14:25;;;;;;;13.90;4.97;;;;;;;;;;4990808;28;20031;-72
2023/08/02 00:16:51;;;;;;;12.10;5.70;;;;;;;;;;4990710;28;20053;-72
2023/08/02 00:19:17;;;;;;;13.98;5.53;;;;;;;;;;4990538;28;20042;-72
2023/08/02 00:21:44;;;;;;;12.50;4.70;;;;;;;;;;4990764;28;20042;-72
2023/08/02 00:24:10;;;;;;;15.07;4.90;;;;;;;;;;4990530;28;20476;-73
2023/08/02 00:26:36;;;;;;;12.80;5.30;;;;;;;;;;4990464;28;20033;-71
2023/08/02 00:29:02;;;;;;;12.05;5.30;;;;;;;;;;4990175;28;20061;-72
2023/08/02 00:31:28;;;;;;;11.32;4.93;;;;;;;;;;4990721;28;20412;-72
2023/08/02 00:33:54;;;;;;;14.73;4.75;;;;;;;;;;4990312;28;20412;-71
2023/08/02 00:36:20;;;;;;;14.00;4.75;;;;;;;;;;4990643;28;20027;-71
2023/08/02 00:38:46;;;;;;;15.30;4.85;;;;;;;;;;4990464;28;20373;-71
2023/08/02 00:41:12;;;;;;;13.35;5.43;;;;;;;;;;4989958;28;20117;-72
2023/08/02 00:43:47;;;;;;;13.88;5.05;;;;;;;;;;4990519;28;20041;-71
2023/08/02 00:46:14;;;;;;;15.43;6.35;;;;;;;;;;4990181;28;20088;-71
2023/08/02 00:48:41;;;;;;;12.80;4.75;;;;;;;;;;4990547;28;20473;-71
2023/08/02 00:51:17;;;;;;;15.80;4.72;;;;;;;;;;4990249;28;20026;-72
2023/08/02 00:53:46;;;;;;;15.38;4.55;;;;;;;;;;4990201;28;20038;-73
2023/08/02 00:56:15;;;;;;;13.73;5.05;;;;;;;;;;4990697;28;20440;-72
2023/08/02 00:58:41;;;;;;;9.63;4.82;;;;;;;;;;4989981;28;20189;-72
2023/08/02 01:01:07;;;;;;;9.57;4.95;;;;;;;;;;5004438;28;20420;-71
2023/08/02 01:03:34;;;;;;;11.88;5.63;;;;;;;;;;5010184;28;20026;-72
2023/08/02 01:06:02;;;;;;;11.32;5.47;;;;;;;;;;5010478;28;20053;-72
2023/08/02 01:08:34;;;;;;;14.23;6.32;;;;;;;;;;5009524;28;20026;-71
2023/08/02 01:11:12;;;;;;;13.23;4.50;;;;;;;;;;5010106;28;20132;-72
2023/08/02 01:13:43;;;;;;;14.98;5.82;;;;;;;;;;5009578;28;20029;-73
2023/08/02 01:16:10;;;;;;;10.55;5.40;;;;;;;;;;5009371;28;20058;-71
2023/08/02 01:18:36;;;;;;;16.20;5.65;;;;;;;;;;5009367;28;20034;-72
2023/08/02 01:21:02;;;;;;;13.93;5.43;;;;;;;;;;5010598;28;20038;-71
2023/08/02 01:23:28;;;;;;;17.67;5.72;;;;;;;;;;5013452;28;20527;-71
2023/08/02 01:25:55;;;;;;;10.95;4.55;;;;;;;;;;5013383;28;20073;-72
2023/08/02 01:28:22;;;;;;;14.63;5.68;;;;;;;;;;5013244;28;20026;-71
2023/08/02 01:30:49;;;;;;;14.63;5.60;;;;;;;;;;5012884;28;20417;-71
2023/08/02 01:33:16;;;;;;;13.15;5.53;;;;;;;;;;5013076;28;20061;-71
2023/08/02 01:35:42;;;;;;;12.60;5.10;;;;;;;;;;5013255;28;20034;-73
2023/08/02 01:38:09;;;;;;;18.00;5.50;;;;;;;;;;5013425;28;20029;-72
2023/08/02 01:40:35;;;;;;;11.95;5.07;;;;;;;;;;4995263;28;20408;-71
2023/08/02 01:43:01;;;;;;;14.52;6.00;;;;;;;;;;5012819;28;20025;-70
2023/08/02 01:45:27;;;;;;;14.10;5.20;;;;;;;;;;5012907;28;20034;-71
2023/08/02 01:47:54;;;;;;;14.20;5.18;;;;;;;;;;5012970;28;20065;-71
2023/08/02 01:50:20;;;;;;;10.25;4.47;;;;;;;;;;5013641;28;20025;-73
2023/08/02 01:52:48;;;;;;;16.35;5.50;;;;;;;;;;5012737;28;20057;-73
2023/08/02 01:55:14;;;;;;;15.57;5.78;;;;;;;;;;5012251;28;20033;-72
2023/08/02 01:57:40;;;;;;;16.90;6.65;;;;;;;;;;4995388;28;20030;-72
2023/08/02 02:00:07;;;;;;;16.77;6.07;;;;;;;;;;5012690;28;20058;-72
2023/08/02 02:02:33;;;;;;;17.17;5.90;;;;;;;;;;5012520;28;20030;-73
2023/08/02 02:04:59;;;;;;;13.23;4.85;;;;;;;;;;5014318;28;20030;-73
2023/08/02 02:07:25;;;;;;;11.77;5.55;;;;;;;;;;5013042;28;20032;-72
2023/08/02 02:09:51;;;;;;;14.13;5.05;;;;;;;;;;5012679;28;20026;-72
2023/08/02 02:12:17;;;;;;;21.13;6.30;;;;;;;;;;5012295;28;20032;-72
2023/08/02 02:14:43;;;;;;;11.73;4.35;;;;;;;;;;5011934;28;20037;-72
2023/08/02 02:17:09;;;;;;;12.38;3.63;;;;;;;;;;5010937;28;20034;-72
2023/08/02 02:19:35;;;;;;;12.57;4.90;;;;;;;;;;5011337;28;20038;-72
2023/08/02 02:22:01;;;;;;;15.93;5.63;;;;;;;;;;5011617;28;20040;-72
2023/08/02 02:24:27;;;;;;;13.45;4.50;;;;;;;;;;5011313;28;20042;-72
2023/08/02 02:26:54;;;;;;;11.68;4.80;;;;;;;;;;5010752;28;20187;-72
2023/08/02 02:29:20;;;;;;;11.77;4.80;;;;;;;;;;5011490;28;20073;-71
2023/08/02 02:31:46;;;;;;;9.52;4.38;;;;;;;;;;5010975;28;20026;-71
2023/08/02 02:34:12;;;;;;;17.17;5.72;;;;;;;;;;5010529;28;20033;-72
2023/08/02 02:36:38;;;;;;;12.52;4.90;;;;;;;;;;5011114;28;20033;-72
2023/08/02 02:39:05;;;;;;;12.15;4.72;;;;;;;;;;5011978;28;20041;-73
2023/08/02 02:41:31;;;;;;;13.75;5.10;;;;;;;;;;5011749;28;20033;-74
2023/08/02 02:43:57;;;;;;;13.60;4.88;;;;;;;;;;5011687;28;20022;-72
2023/08/02 02:46:23;;;;;;;9.55;4.57;;;;;;;;;;5012206;28;20105;-72
2023/08/02 02:48:49;;;;;;;9.00;3.72;;;;;;;;;;5011803;28;20369;-73
2023/08/02 02:51:14;;;;;;;11.90;5.68;;;;;;;;;;5012153;28;20026;-72
2023/08/02 02:53:42;;;;;;;11.80;4.38;;;;;;;;;;5011553;28;20026;-72
2023/08/02 02:56:08;;;;;;;7.38;3.97;;;;;;;;;;5012344;28;20017;-73
2023/08/02 02:58:34;;;;;;;17.17;5.15;;;;;;;;;;5011712;28;20389;-71
2023/08/02 03:01:00;;;;;;;14.68;3.40;;;;;;;;;;5011564;28;20054;-71
2023/08/02 03:03:26;;;;;;;11.77;5.00;;;;;;;;;;5011749;28;20066;-73
2023/08/02 03:05:55;;;;;;;12.93;4.93;;;;;;;;;;5011735;28;20443;-72
2023/08/02 03:08:21;;;;;;;11.80;4.68;;;;;;;;;;5011936;28;20365;-71
2023/08/02 03:10:47;;;;;;;11.68;4.40;;;;;;;;;;5011051;28;20037;-73
2023/08/02 03:13:13;;;;;;;9.20;3.63;;;;;;;;;;5010592;28;20037;-72
2023/08/02 03:15:39;;;;;;;11.32;4.70;;;;;;;;;;5009963;28;20030;-73
2023/08/02 03:18:05;;;;;;;10.70;3.95;;;;;;;;;;5010380;28;20448;-72
2023/08/02 03:20:31;;;;;;;13.88;4.72;;;;;;;;;;5010502;28;20042;-71
2023/08/02 03:22:57;;;;;;;12.65;4.25;;;;;;;;;;5010033;28;20119;-71
2023/08/02 03:25:24;;;;;;;11.15;4.45;;;;;;;;;;5010406;28;20033;-71
2023/08/02 03:27:50;;;;;;;12.00;3.85;;;;;;;;;;4993071;28;20395;-70
2023/08/02 03:30:16;;;;;;;12.55;4.10;;;;;;;;;;5009647;28;20034;-72
2023/08/02 03:32:42;;;;;;;11.73;4.47;;;;;;;;;;5010197;28;20054;-72
2023/08/02 03:35:08;;;;;;;11.95;4.53;;;;;;;;;;5010133;28;20054;-73
2023/08/02 03:37:34;;;;;;;8.45;3.55;;;;;;;;;;5009600;28;20404;-71
2023/08/02 03:40:00;;;;;;;8.63;3.40;;;;;;;;;;5009696;28;20049;-72
2023/08/02 03:42:26;;;;;;;10.45;4.05;;;;;;;;;;5009725;28;20080;-71
2023/08/02 03:44:52;;;;;;;10.68;4.10;;;;;;;;;;5009408;28;20136;-72
2023/08/02 03:47:18;;;;;;;9.38;4.07;;;;;;;;;;4991655;28;20030;-71
2023/08/02 03:49:44;;;;;;;11.30;4.85;;;;;;;;;;5009861;28;20034;-72
2023/08/02 03:52:10;;;;;;;9.70;3.75;;;;;;;;;;5009737;28;20540;-71
2023/08/02 03:54:36;;;;;;;12.40;4.20;;;;;;;;;;5009661;28;20033;-71
2023/08/02 03:57:02;;;;;;;10.60;4.78;;;;;;;;;;5009255;28;20109;-71
2023/08/02 03:59:28;;;;;;;10.20;5.35;;;;;;;;;;5009435;28;20133;-70
2023/08/02 04:01:54;;;;;;;12.30;3.85;;;;;;;;;;5009032;28;20029;-71
2023/08/02 04:04:21;;;;;;;10.45;3.58;;;;;;;;;;5009591;28;20065;-71
2023/08/02 04:06:47;;;;;;;18.55;6.25;;;;;;;;;;5009818;28;20022;-71
2023/08/02 04:09:13;;;;;;;11.57;3.78;;;;;;;;;;5009521;28;20038;-71
2023/08/02 04:11:39;;;;;;;9.10;3.78;;;;;;;;;;5009757;28;20032;-72
2023/08/02 04:14:05;;;;;;;11.10;4.65;;;;;;;;;;5010432;28;20026;-72
2023/08/02 04:16:31;;;;;;;11.77;4.55;;;;;;;;;;5010689;28;20029;-71
2023/08/02 04:18:57;;;;;;;10.10;4.28;;;;;;;;;;5010602;28;20072;-71
2023/08/02 04:21:23;;;;;;;17.95;5.05;;;;;;;;;;5009631;28;20404;-72
2023/08/02 04:23:50;;;;;;;11.98;4.30;;;;;;;;;;5009311;28;20026;-72
2023/08/02 04:26:16;;;;;;;11.02;4.50;;;;;;;;;;5009526;28;20022;-72
2023/08/02 04:28:42;;;;;;;11.93;4.95;;;;;;;;;;5009324;28;20105;-72
2023/08/02 04:31:08;;;;;;;12.43;5.00;;;;;;;;;;5009863;28;20117;-71
2023/08/02 04:33:34;;;;;;;10.20;3.63;;;;;;;;;;5009318;28;20034;-71
2023/08/02 04:36:00;;;;;;;12.27;4.82;;;;;;;;;;5009488;28;20038;-70
2023/08/02 04:38:26;;;;;;;9.52;4.35;;;;;;;;;;5008780;28;20022;-72
2023/08/02 04:40:53;;;;;;;11.98;4.93;;;;;;;;;;5008931;28;20045;-71
2023/08/02 04:43:19;;;;;;;11.35;4.40;;;;;;;;;;5008859;28;20029;-72
2023/08/02 04:45:44;;;;;;;12.18;4.50;;;;;;;;;;5008759;28;20029;-72
2023/08/02 04:48:10;;;;;;;11.13;4.38;;;;;;;;;;5008780;28;20500;-72
2023/08/02 04:50:36;;;;;;;9.32;3.13;;;;;;;;;;5009068;28;20030;-72
2023/08/02 04:53:02;;;;;;;9.05;3.53;;;;;;;;;;5008937;28;20096;-73
2023/08/02 04:55:28;;;;;;;12.70;4.53;;;;;;;;;;5010180;28;20022;-72
2023/08/02 04:57:54;;;;;;;12.45;4.57;;;;;;;;;;5015231;28;20026;-72
2023/08/02 05:00:20;;;;;;;12.10;4.28;;;;;;;;;;5015209;28;20105;-72
2023/08/02 05:02:47;;;;;;;9.20;3.90;;;;;;;;;;5015036;28;20485;-73
2023/08/02 05:05:13;;;;;;;10.80;4.65;;;;;;;;;;5015397;28;20033;-71
2023/08/02 05:07:40;;;;;;;9.13;3.88;;;;;;;;;;5015511;28;20386;-71
2023/08/02 05:10:06;;;;;;;11.48;4.68;;;;;;;;;;5014656;28;20493;-72
2023/08/02 05:12:40;;;;;;;7.78;2.78;;;;;;;;;;5016086;28;20045;-72
2023/08/02 05:15:07;;;;;;;8.90;3.72;;;;;;;;;;4997905;28;20026;-71
2023/08/02 05:17:33;;;;;;;9.40;3.80;;;;;;;;;;4998525;28;20106;-72
2023/08/02 05:19:59;;;;;;;8.77;3.38;;;;;;;;;;5016129;28;20107;-72
2023/08/02 05:22:25;;;;;;;11.45;3.90;;;;;;;;;;5015819;28;20026;-72
2023/08/02 05:24:51;;;;;;;8.50;3.70;;;;;;;;;;5016175;28;20029;-72
2023/08/02 05:27:17;;;;;;;9.38;3.50;;;;;;;;;;5016020;28;20033;-72
2023/08/02 05:29:44;;;;;;;9.77;2.67;;;;;;;;;;5015650;28;20040;-72
2023/08/02 05:32:10;;;;;;;5.38;2.28;;;;;;;;;;4998307;28;20053;-72
2023/08/02 05:34:36;;;;;;;10.15;3.97;;;;;;;;;;5016634;28;20026;-72
2023/08/02 05:37:02;;;;;;;7.88;2.20;;;;;;;;;;5016312;28;20069;-71
2023/08/02 05:39:28;;;;;;;8.43;3.58;;;;;;;;;;5015992;28;20148;-71
2023/08/02 05:41:53;;;;;;;7.78;3.30;;;;;;;;;;5015664;28;20051;-71
2023/08/02 05:44:20;;;;;;;6.40;2.60;;;;;;;;;;5016001;28;20487;-72
2023/08/02 05:46:46;;;;;;;11.25;4.22;;;;;;;;;;5015897;28;20072;-72
2023/08/02 05:49:11;;;;;;;11.15;3.05;;;;;;;;;;5016099;28;20117;-72
2023/08/02 05:51:37;;;;;;;6.07;2.65;;;;;;;;;;4998058;28;20030;-72
2023/08/02 05:54:03;;;;;;;7.35;2.67;;;;;;;;;;5016571;28;20034;-73
2023/08/02 05:56:29;;;;;;;8.65;3.22;;;;;;;;;;5016772;28;20073;-72
2023/08/02 05:58:55;;;;;;;5.72;2.45;;;;;;;;;;5015689;28;20107;-73
2023/08/02 06:01:21;;;;;;;9.57;4.05;;;;;;;;;;5015629;28;20048;-72
2023/08/02 06:03:47;;;;;;;8.88;2.70;;;;;;;;;;4998025;28;20092;-72
2023/08/02 06:06:13;;;;;;;9.13;3.22;;;;;;;;;;5015211;28;20109;-72
2023/08/02 06:08:41;;;;;;;7.47;3.45;;;;;;;;;;5012751;28;20476;-72
2023/08/02 06:11:07;;;;;;;8.48;3.38;;;;;;;;;;5011974;28;20092;-72
2023/08/02 06:13:33;;;;;;;9.25;3.55;;;;;;;;;;5011444;28;20547;-72
2023/08/02 06:15:59;;;;;;;9.13;3.38;;;;;;;;;;5011690;28;20116;-72
2023/08/02 06:18:25;;;;;;;5.53;2.50;;;;;;;;;;5012389;28;20395;-72
2023/08/02 06:20:51;;;;;;;9.30;3.80;;;;;;;;;;5011240;28;20571;-73
2023/08/02 06:23:17;;;;;;;9.15;3.28;;;;;;;;;;5011395;28;20161;-73
2023/08/02 06:25:43;;;;;;;9.52;3.42;;;;;;;;;;5011284;28;20034;-73
2023/08/02 06:28:09;;;;;;;7.85;3.25;;;;;;;;;;5011243;28;20033;-72
2023/08/02 06:30:35;;;;;;;6.60;2.92;;;;;;;;;;5011625;28;20137;-72
2023/08/02 06:33:01;;;;;;;5.90;2.53;;;;;;;;;;5010926;28;20836;-74
2023/08/02 06:35:27;;;;;;;6.55;2.95;;;;;;;;;;5011753;28;20061;-72
2023/08/02 06:37:53;;;;;;;9.35;3.58;;;;;;;;;;5011404;28;20475;-73
2023/08/02 06:40:19;;;;;;;8.15;3.40;;;;;;;;;;5011411;28;20044;-71
2023/08/02 06:42:45;;;;;;;7.88;4.35;;;;;;;;;;5010994;28;20033;-71
2023/08/02 06:45:11;;;;;;;10.27;4.45;;;;;;;;;;5011077;28;20535;-71
2023/08/02 06:47:38;;;;;;;9.52;3.78;;;;;;;;;;5010603;28;20026;-70
2023/08/02 06:50:04;;;;;;;8.88;3.70;;;;;;;;;;5011480;28;20559;-71
2023/08/02 06:52:30;;;;;;;11.10;4.25;;;;;;;;;;5010962;28;20050;-72
2023/08/02 06:54:56;;;;;;;10.43;4.75;;;;;;;;;;5009665;28;20033;-72
2023/08/02 06:57:23;;;;;;;10.18;4.28;;;;;;;;;;5009995;28;20071;-72
2023/08/02 06:59:51;;;;;;;7.63;4.35;;;;;;;;;;5009822;28;20537;-71
2023/08/02 07:02:17;;;;;;;11.93;4.60;;;;;;;;;;5010957;28;20038;-70
2023/08/02 07:04:43;;;;;;;7.38;3.72;;;;;;;;;;5009626;28;20041;-71
2023/08/02 07:07:09;;;;;;;11.27;4.85;;;;;;;;;;5009306;28;20034;-72
2023/08/02 07:09:35;;;;;;;8.55;4.60;;;;;;;;;;5009517;28;20507;-72
2023/08/02 07:12:00;;;;;;;10.23;4.60;;;;;;;;;;5008493;28;20030;-73
2023/08/02 07:14:26;;;;;;;7.90;3.83;;;;;;;;;;5009137;28;20046;-71
2023/08/02 07:16:52;;;;;;;8.40;3.05;;;;;;;;;;5009326;28;20666;-71
2023/08/02 07:19:18;;;;;;;8.48;3.40;;;;;;;;;;5009905;28;20029;-71
2023/08/02 07:21:44;;;;;;;6.10;2.75;;;;;;;;;;5009932;28;20026;-72
2023/08/02 07:24:10;;;;;;;8.13;3.22;;;;;;;;;;5010626;28;20392;-72
2023/08/02 07:26:36;;;;;;;8.40;3.10;;;;;;;;;;5009824;28;20033;-73
2023/08/02 07:29:02;;;;;;;6.88;3.05;;;;;;;;;;5010459;28;20123;-71
2023/08/02 07:31:28;;;;;;;9.93;4.43;;;;;;;;;;5010072;28;20037;-72
2023/08/02 07:33:54;;;;;;;6.88;3.08;;;;;;;;;;5009387;28;20033;-72
2023/08/02 07:36:20;;;;;;;7.82;3.10;;;;;;;;;;5009785;28;20038;-73
2023/08/02 07:38:47;;;;;;;6.18;2.60;;;;;;;;;;5009870;28;20022;-72
2023/08/02 07:41:13;;;;;;;8.25;4.38;;;;;;;;;;5009806;28;20046;-72
2023/08/02 07:43:39;;;;;;;6.43;3.53;;;;;;;;;;5009543;28;20046;-72
2023/08/02 07:46:06;;;;;;;8.00;2.53;;;;;;;;;;5010218;28;20026;-72
2023/08/02 07:48:32;;;;;;;5.47;2.78;;;;;;;;;;5010165;28;20160;-72
2023/08/02 07:50:58;;;;;;;8.75;3.22;;;;;;;;;;4992673;28;20403;-73
2023/08/02 07:53:27;;;;;;;7.32;3.80;;;;;;;;;;5010415;28;20029;-71
2023/08/02 07:56:00;;;;;;;4.35;2.08;;;;;;;;;;5009978;28;20026;-72
2023/08/02 07:58:26;;;;;;;5.28;1.77;;;;;;;;;;5010072;28;20030;-73
2023/08/02 08:00:52;;;;;;;5.85;2.42;;;;;;;;;;5009686;28;20100;-73
2023/08/02 08:03:18;;;;;;;5.07;2.78;;;;;;;;;;5010187;28;20018;-72
2023/08/02 08:05:47;;;;;;;9.00;3.08;;;;;;;;;;5009678;28;20032;-72
2023/08/02 08:08:13;;;;;;;5.35;2.67;;;;;;;;;;5009813;28;20040;-73
2023/08/02 08:10:39;;;;;;;4.78;1.80;;;;;;;;;;5009614;28;20025;-71
2023/08/02 08:13:05;;;;;;;5.30;1.50;;;;;;;;;;5009434;28;20036;-72
2023/08/02 08:15:31;;;;;;;3.95;1.83;;;;;;;;;;5009135;28;20032;-71
2023/08/02 08:17:57;;;;;;;6.30;1.90;;;;;;;;;;5009351;28;20034;-71
2023/08/02 08:20:23;;;;;;;4.25;2.38;;;;;;;;;;5009001;28;20120;-72
2023/08/02 08:22:49;;;;;;;3.00;1.45;;;;;;;;;;5009162;28;20506;-73
2023/08/02 08:25:15;;;;;;;3.03;1.30;;;;;;;;;;4991969;28;20029;-70
2023/08/02 08:27:41;;;;;;;4.18;2.05;;;;;;;;;;5009783;28;20427;-71
2023/08/02 08:30:07;;;;;;;3.20;1.20;;;;;;;;;;5008810;28;20030;-71
2023/08/02 08:32:33;;;;;;;4.18;1.60;;;;;;;;;;5009530;28;20084;-71
2023/08/02 08:35:03;;;;;;;2.95;1.48;;;;;;;;;;5010018;28;20057;-73
2023/08/02 08:37:29;;;;;;;6.18;1.50;;;;;;;;;;5008672;28;20026;-72
2023/08/02 08:39:55;;;;;;;4.25;1.92;;;;;;;;;;5009449;28;20036;-71
2023/08/02 08:42:21;;;;;;;4.15;1.83;;;;;;;;;;5009695;28;20080;-72
2023/08/02 08:44:47;;;;;;;3.05;1.50;;;;;;;;;;5009406;28;20030;-72
2023/08/02 08:47:14;;;;;;;4.07;1.73;;;;;;;;;;4991605;28;20394;-72
2023/08/02 08:49:40;;;;;;;4.38;1.75;;;;;;;;;;5009169;28;20117;-72
2023/08/02 08:52:08;;;;;;;2.92;1.30;;;;;;;;;;5009046;28;20053;-74
2023/08/02 08:54:37;;;;;;;3.33;1.27;;;;;;;;;;5008990;28;20036;-73
2023/08/02 08:57:04;;;;;;;4.03;1.73;;;;;;;;;;5009374;28;20029;-72
2023/08/02 08:59:30;;;;;;;4.10;1.80;;;;;;;;;;5009093;28;20061;-72
2023/08/02 09:01:58;;;;;;;3.42;1.38;;;;;;;;;;5008675;28;20080;-72
2023/08/02 09:04:24;;;;;;;2.80;1.45;;;;;;;;;;5009193;28;20046;-71
2023/08/02 09:06:50;;;;;;;3.50;1.67;;;;;;;;;;5009124;28;20098;-72
2023/08/02 09:09:16;;;;;;;2.67;1.30;;;;;;;;;;5009693;28;20513;-71
2023/08/02 09:11:45;;;;;;;2.88;1.50;;;;;;;;;;5010696;28;20068;-71
2023/08/02 09:14:12;;;;;;;2.90;1.25;;;;;;;;;;5010743;28;20476;-72
2023/08/02 09:16:57;;;;;;;2.05;1.20;;;;;;;;;;5009684;28;20026;-71
2023/08/02 09:19:24;;;;;;;2.22;1.13;;;;;;;;;;5010124;28;20034;-72
2023/08/02 09:22:11;;;;;;;3.80;1.08;;;;;;;;;;5010118;28;20231;-72
2023/08/02 09:24:37;;;;;;;2.63;1.10;;;;;;;;;;5009787;28;20097;-72
2023/08/02 09:27:05;;;;;;;2.33;1.00;;;;;;;;;;5010801;28;20080;-72
2023/08/02 09:29:45;;;;;;;4.25;1.23;;;;;;;;;;5010466;28;20034;-71
2023/08/02 09:32:14;;;;;;;1.73;1.17;;;;;;;;;;5009979;28;20029;-73
2023/08/02 09:34:44;;;;;;;1.77;0.73;;;;;;;;;;5009868;28;20025;-73
2023/08/02 09:37:14;;;;;;;1.52;1.02;;;;;;;;;;5010057;28;20028;-72
2023/08/02 09:39:40;;;;;;;;;;;;;;;;;;5010231;28;20081;-72
2023/08/02 09:42:06;;;;;;;;;;;;;;;;;;5011816;28;19968;-73
2023/08/02 09:44:32;;;;;;;;;;;;;;;;;;5014259;28;19909;-71
2023/08/02 09:46:58;;;;;;;;;;;;;;;;;;5014192;28;19967;-72
2023/08/02 09:49:24;;;;;;;;;;;;;;;;;;5015135;28;20013;-74
2023/08/02 09:51:50;;;;;;;;;;;;;;;;;;5014140;28;19901;-73
2023/08/02 09:54:16;;;;;;;;;;;;;;;;;;5013751;28;19988;-73
2023/08/02 09:56:42;;;;;;;;;;;;;;;;;;5014196;28;19964;-73
2023/08/02 09:59:08;;;;;;;;;;;;;;;;;;5013664;28;19905;-72
2023/08/02 10:01:33;;;;;;;;;;;;;;;;;;5013957;28;19918;-72
2023/08/02 10:03:59;;;;;;;;;;;;;;;;;;5014072;28;19910;-72
2023/08/02 10:06:25;;;;;;;;;;;;;;;;;;5014049;28;19909;-72
2023/08/02 10:08:51;;;;;;;;;;;;;;;;;;5013634;28;19945;-72
2023/08/02 10:11:17;;;;;;;;;;;;;;;;;;5013223;28;19909;-71
2023/08/02 10:13:43;;;;;;;;;;;;;;;;;;5012293;28;19953;-71
2023/08/02 10:16:09;;;;;;;;;;;;;;;;;;5012158;28;19909;-72
2023/08/02 10:18:35;;;;;;;;;;;;;;;;;;5012696;28;19992;-71
2023/08/02 10:21:01;;;;;;;;;;;;;;;;;;5012107;28;19917;-73
2023/08/02 10:23:27;;;;;;;;;;;;;;;;;;4995060;28;19921;-73
2023/08/02 10:25:53;;;;;;;;;;;;;;;;;;5012275;28;20269;-72
2023/08/02 10:28:19;;;;;;;;;;;;;;;;;;5012015;28;19960;-71
2023/08/02 10:30:45;;;;;;;;;;;;;;;;;;5012398;28;19905;-72
2023/08/02 10:33:14;;;;;;;;;;;;;;;;;;5012446;28;20380;-71
2023/08/02 10:35:40;;;;;;;;;;;;;;;;;;5012022;28;19945;-73
2023/08/02 10:38:06;;;;;;;;;;;;;;;;;;4994670;28;19960;-73
2023/08/02 10:40:32;;;;;;;;;;;;;;;;;;5012292;28;19913;-71
2023/08/02 10:42:58;;;;;;;;;;;;;;;;;;5011501;28;19909;-72
2023/08/02 10:45:24;;;;;;;;;;;;;;;;;;5011687;28;20356;-72
2023/08/02 10:47:49;;;;;;;;;;;;;;;;;;5011891;28;19959;-72
2023/08/02 10:50:15;;;;;;;;;;;;;;;;;;5011532;28;19906;-71
2023/08/02 10:52:42;;;;;;;;;;;;;;;;;;5011574;28;19906;-72
2023/08/02 10:55:08;;;;;;;;;;;;;;;;;;5010541;28;19917;-73
2023/08/02 10:57:34;;;;;;;;;;;;;;;;;;4993545;28;19987;-73
2023/08/02 11:00:00;;;;;;;;;;;;;;;;;;5010787;28;19917;-72
2023/08/02 11:02:26;;;;;;;;;;;;;;;;;;5011782;28;19983;-73
2023/08/02 11:04:52;;;;;;;;;;;;;;;;;;5011764;28;20256;-72
2023/08/02 11:07:21;;;;;;;;;;;;;;;;;;5011372;28;19910;-71
2023/08/02 11:09:47;;;;;;;;;;;;;;;;;;5011685;28;19909;-71
2023/08/02 11:12:13;;;;;;;;;;;;;;;;;;5011892;28;19981;-71
2023/08/02 11:14:39;;;;;;;;;;;;;;;;;;5011435;28;19931;-71
2023/08/02 11:17:05;;;;;;;;;;;;;;;;;;5012035;28;19914;-72
2023/08/02 11:19:31;;;;;;;;;;;;;;;;;;5010984;28;19960;-69
2023/08/02 11:21:56;;;;;;;;;;;;;;;;;;5011208;28;19925;-71
2023/08/02 11:24:22;;;;;;;;;;;;;;;;;;5011271;28;19913;-70
2023/08/02 11:26:48;;;;;;;;;;;;;;;;;;5011005;28;19906;-71
2023/08/02 11:29:14;;;;;;;;;;;;;;;;;;5011777;28;20060;-72
2023/08/02 11:31:40;;;;;;;;;;;;;;;;;;5012707;28;19901;-72
2023/08/02 11:34:06;;;;;;;;;;;;;;;;;;5012415;28;19909;-71
2023/08/02 11:36:33;;;;;;;;;;;;;;;;;;5012270;28;19901;-73
2023/08/02 11:38:59;;;;;;;;;;;;;;;;;;5012184;28;19912;-70
2023/08/02 11:41:24;;;;;;;;;;;;;;;;;;5012162;28;19913;-72
2023/08/02 11:43:50;;;;;;;;;;;;;;;;;;5011768;28;20233;-72
2023/08/02 11:46:18;;;;;;;;;;;;;;;;;;5011323;28;19936;-70
2023/08/02 11:48:44;;;;;;;;;;;;;;;;;;5011297;28;20291;-71
2023/08/02 11:51:10;;;;;;;;;;;;;;;;;;5011838;28;19905;-71
2023/08/02 11:53:36;;;;;;;;;;;;;;;;;;5011061;28;19916;-72
2023/08/02 11:56:02;;;;;;;;;;;;;;;;;;5011500;28;19909;-72
2023/08/02 11:58:28;;;;;;;;;;;;;;;;;;5011508;28;19905;-74
2023/08/02 12:00:54;;;;;;;;;;;;;;;;;;5010802;28;20034;-73
2023/08/02 12:03:20;;;;;;;;;;;;;;;;;;5011295;28;20437;-73
2023/08/02 12:05:46;;;;;;;;;;;;;;;;;;5011614;28;19948;-73
2023/08/02 12:08:12;;;;;;;;;;;;;;;;;;5011169;28;20354;-73
2023/08/02 12:10:41;;;;;;;;;;;;;;;;;;5011351;28;20069;-73
2023/08/02 12:13:07;;;;;;;;;;;;;;;;;;5011017;28;19912;-72
2023/08/02 12:15:32;;;;;;;;;;;;;;;;;;5010515;28;20003;-72
2023/08/02 12:17:58;;;;;;;;;;;;;;;;;;5010564;28;19975;-72
2023/08/02 12:20:24;;;;;;;;;;;;;;;;;;5010210;28;19913;-71
2023/08/02 12:22:50;;;;;;;;;;;;;;;;;;5010576;28;19906;-73
2023/08/02 12:25:16;;;;;;;;;;;;;;;;;;5010439;28;19959;-73
2023/08/02 12:27:42;;;;;;;;;;;;;;;;;;5010638;28;19942;-73
2023/08/02 12:30:09;;;;;;;;;;;;;;;;;;5010274;28;20095;-72
2023/08/02 12:32:35;;;;;;;;;;;;;;;;;;5010718;28;19954;-72
2023/08/02 12:35:01;;;;;;;;;;;;;;;;;;4992284;28;19905;-72
2023/08/02 12:37:26;;;;;;;;;;;;;;;;;;5010056;28;19910;-71
2023/08/02 12:39:52;;;;;;;;;;;;;;;;;;5009762;28;19924;-71
2023/08/02 12:42:18;;;;;;;;;;;;;;;;;;5009645;28;20024;-71
2023/08/02 12:44:47;;;;;;;;;;;;;;;;;;5009813;28;19905;-71
2023/08/02 12:47:12;;;;;;;;;;;;;;;;;;5009545;28;19917;-74
2023/08/02 12:49:38;;;;;;;;;;;;;;;;;;5009864;28;19906;-73
2023/08/02 12:52:04;;;;;;;;;;;;;;;;;;5009815;28;19909;-73
2023/08/02 12:54:30;;;;;;;;;;;;;;;;;;5009827;28;19910;-74
2023/08/02 12:56:56;;;;;;;;;;;;;;;;;;5009186;28;19906;-73
2023/08/02 12:59:22;;;;;;;;;;;;;;;;;;5010143;28;19936;-72
2023/08/02 13:01:48;;;;;;;;;;;;;;;;;;5009726;28;19917;-72
2023/08/02 13:04:14;;;;;;;;;;;;;;;;;;5009352;28;19933;-73
2023/08/02 13:06:40;;;;;;;;;;;;;;;;;;5009285;28;19948;-72
2023/08/02 13:09:06;;;;;;;;;;;;;;;;;;5010018;28;19952;-72
2023/08/02 13:11:32;;;;;;;;;;;;;;;;;;5009556;28;19906;-72
2023/08/02 13:13:58;;;;;;;;;;;;;;;;;;5010497;28;19998;-72
2023/08/02 13:16:24;;;;;;;;;;;;;;;;;;5010309;28;19905;-73
2023/08/02 13:18:50;;;;;;;;;;;;;;;;;;5013405;28;20322;-73
2023/08/02 13:21:17;;;;;;;;;;;;;;;;;;5014426;28;19964;-74
2023/08/02 13:23:43;;;;;;;;;;;;;;;;;;4997249;28;19996;-74
2023/08/02 13:26:09;;;;;;;;;;;;;;;;;;5015572;28;19914;-74
2023/08/02 13:28:35;;;;;;;;;;;;;;;;;;5014469;28;19917;-74
2023/08/02 13:31:01;;;;;;;;;;;;;;;;;;5014162;28;20379;-72
2023/08/02 13:33:27;;;;;;;;;;;;;;;;;;4996282;28;19910;-74
2023/08/02 13:35:53;;;;;;;;;;;;;;;;;;5014072;28;20326;-71
2023/08/02 13:38:19;;;;;;;;;;;;;;;;;;5014935;28;20359;-75
2023/08/02 13:40:45;;;;;;;;;;;;;;;;;;4996772;28;19913;-75
2023/08/02 13:43:11;;;;;;;;;;;;;;;;;;5013488;28;19991;-74
2023/08/02 13:45:37;;;;;;;;;;;;;;;;;;5013641;28;19957;-74
2023/08/02 13:48:03;;;;;;;;;;;;;;;;;;5013879;28;19905;-73
2023/08/02 13:50:31;;;;;;;;;;;;;;;;;;5013049;28;19906;-72
2023/08/02 13:52:57;;;;;;;;;;;;;;;;;;5012862;28;19905;-72
2023/08/02 13:55:23;;;;;;;;;;;;;;;;;;5012861;28;19955;-72
2023/08/02 13:57:49;;;;;;;;;;;;;;;;;;5013038;28;19905;-73
2023/08/02 14:00:15;;;;;;;;;;;;;;;;;;4995850;28;20396;-73
2023/08/02 14:02:41;;;;;;;;;;;;;;;;;;5012673;28;19918;-73
2023/08/02 14:05:08;;;;;;;;;;;;;;;;;;5012210;28;20234;-73
2023/08/02 14:07:34;;;;;;;;;;;;;;;;;;5012191;28;19932;-72
2023/08/02 14:10:00;;;;;;;;;;;;;;;;;;5012744;28;19912;-72
2023/08/02 14:12:26;;;;;;;;;;;;;;;;;;5013051;28;19952;-72
2023/08/02 14:14:52;;;;;;;;;;;;;;;;;;5012147;28;20775;-72
2023/08/02 14:17:18;;;;;;;;;;;;;;;;;;5012166;28;19909;-72
2023/08/02 14:19:44;;;;;;;;;;;;;;;;;;5012533;28;19960;-72
2023/08/02 14:22:10;;;;;;;;;;;;;;;;;;5012259;28;19918;-73
2023/08/02 14:24:36;;;;;;;;;;;;;;;;;;5012520;28;19905;-73
2023/08/02 14:27:04;;;;;;;;;;;;;;;;;;5012168;28;20382;-71
2023/08/02 14:29:30;;;;;;;;;;;;;;;;;;5011025;28;19988;-73
2023/08/02 14:31:56;;;;;;;;;;;;;;;;;;5012140;28;20453;-72
2023/08/02 14:34:24;;;;;;;;;;;;;;;;;;5011952;28;19905;-73
2023/08/02 14:36:50;;;;;;;;;;;;;;;;;;5011222;28;19906;-71
2023/08/02 14:39:16;;;;;;;;;;;;;;;;;;5011142;28;19964;-71
2023/08/02 14:41:42;;;;;;;;;;;;;;;;;;5010490;28;20641;-71
2023/08/02 14:44:08;;;;;;;;;;;;;;;;;;5009651;28;20081;-73
2023/08/02 14:46:35;;;;;;;;;;;;;;;;;;5010794;28;19906;-72
2023/08/02 14:49:00;;;;;;;;;;;;;;;;;;5009823;28;19927;-72
2023/08/02 14:51:26;;;;;;;;;;;;;;;;;;5008583;28;20359;-73
2023/08/02 14:53:52;;;;;;;;;;;;;;;;;;5007485;28;19917;-71
2023/08/02 14:56:18;;;;;;;;;;;;;;;;;;4990766;28;19909;-71
2023/08/02 14:58:44;;;;;;;;;;;;;;;;;;5008542;28;19977;-71
2023/08/02 15:01:10;;;;;;;;;;;;;;;;;;5008754;28;19932;-73
2023/08/02 15:03:36;;;;;;;;;;;;;;;;;;5009125;28;20321;-73
2023/08/02 15:06:02;;;;;;;;;;;;;;;;;;5010745;28;20032;-72
2023/08/02 15:08:28;;;;;;;;;;;;;;;;;;4993872;28;20517;-73
2023/08/02 15:10:54;;;;;;;;;;;;;;;;;;5010902;28;19909;-72
2023/08/02 15:13:21;;;;;;;;;;;;;;;;;;5011719;28;19913;-72
2023/08/02 15:15:47;;;;;;;;;;;;;;;;;;5011097;28;19915;-71